createdAt,value
2019-01-14T00:01:24.687Z,4.52
2019-01-14T00:04:41.386Z,4.53
2019-01-14T00:07:48.753Z,4.33
2019-01-14T00:11:05.434Z,4.36
2019-01-14T00:14:12.558Z,4.31
2019-01-14T00:17:19.779Z,4.38
2019-01-14T00:20:27.068Z,4.38
2019-01-14T00:23:46.514Z,4.31
2019-01-14T00:26:53.794Z,4.31
2019-01-14T00:30:00.935Z,4.20
2019-01-14T00:33:08.241Z,4.22
2019-01-14T00:36:17.599Z,4.09
2019-01-14T00:39:24.523Z,4.12
2019-01-14T00:42:31.881Z,4.07
2019-01-14T00:45:39.091Z,4.07
2019-01-14T00:48:55.707Z,4.17
2019-01-14T00:52:02.926Z,4.08
2019-01-14T00:55:10.248Z,4.03
2019-01-14T00:58:26.909Z,4.05
2019-01-14T01:01:43.672Z,4.05
2019-01-14T01:04:50.802Z,3.99
2019-01-14T01:07:58.001Z,4.01
2019-01-14T01:11:05.363Z,3.98
2019-01-14T01:14:21.944Z,3.94
2019-01-14T01:17:27.536Z,3.91
2019-01-14T01:20:35.028Z,3.85
2019-01-14T01:23:53.482Z,3.83
2019-01-14T01:27:00.672Z,3.74
2019-01-14T01:30:10.626Z,3.85
2019-01-14T01:33:17.818Z,3.85
2019-01-14T01:36:31.717Z,3.68
2019-01-14T01:39:33.840Z,3.73
2019-01-14T01:42:40.971Z,3.68
2019-01-14T01:45:47.081Z,3.75
2019-01-14T01:48:54.363Z,3.69
2019-01-14T01:52:11.114Z,3.76
2019-01-14T01:55:27.879Z,3.82
2019-01-14T01:58:35.076Z,3.68
2019-01-14T02:01:42.193Z,3.69
2019-01-14T02:04:49.402Z,3.67
2019-01-14T02:07:56.686Z,3.63
2019-01-14T02:11:03.990Z,3.66
2019-01-14T02:14:20.835Z,3.68
2019-01-14T02:17:37.315Z,3.72
2019-01-14T02:20:44.505Z,3.62
2019-01-14T02:23:51.727Z,3.62
2019-01-14T02:26:58.854Z,3.56
2019-01-14T02:30:10.393Z,3.64
2019-01-14T02:33:17.598Z,3.55
2019-01-14T02:36:24.783Z,3.56
2019-01-14T02:39:31.982Z,3.55
2019-01-14T02:42:39.180Z,3.55
2019-01-14T02:45:46.411Z,3.57
2019-01-14T02:48:53.700Z,3.58
2019-01-14T02:52:00.828Z,3.54
2019-01-14T02:55:08.422Z,3.62
2019-01-14T02:58:15.634Z,3.66
2019-01-14T03:01:22.933Z,3.70
2019-01-14T03:04:30.136Z,3.77
2019-01-14T03:07:37.402Z,3.73
2019-01-14T03:10:54.078Z,3.80
2019-01-14T03:14:01.302Z,3.78
2019-01-14T03:17:08.517Z,3.76
2019-01-14T03:20:16.182Z,3.74
2019-01-14T03:23:32.550Z,3.85
2019-01-14T03:26:51.768Z,3.87
2019-01-14T03:29:58.873Z,3.88
2019-01-14T03:33:06.081Z,3.89
2019-01-14T03:36:13.261Z,3.92
2019-01-14T03:39:30.080Z,4.00
2019-01-14T03:42:37.265Z,3.82
2019-01-14T03:45:44.457Z,3.61
2019-01-14T03:48:51.754Z,3.54
2019-01-14T03:51:58.945Z,3.53
2019-01-14T03:55:07.181Z,3.59
2019-01-14T03:58:14.552Z,3.54
2019-01-14T04:01:21.853Z,3.48
2019-01-14T04:04:29.144Z,3.44
2019-01-14T04:07:37.552Z,3.41
2019-01-14T04:10:44.758Z,3.33
2019-01-14T04:13:52.033Z,3.40
2019-01-14T04:16:59.235Z,3.39
2019-01-14T04:20:07.638Z,3.43
2019-01-14T04:23:14.852Z,3.31
2019-01-14T04:26:22.143Z,3.28
2019-01-14T04:29:29.265Z,3.27
2019-01-14T04:32:36.457Z,3.24
2019-01-14T04:35:43.641Z,3.11
2019-01-14T04:38:50.791Z,3.11
2019-01-14T04:41:58.085Z,3.05
2019-01-14T04:45:05.775Z,3.04
2019-01-14T04:48:13.357Z,3.08
2019-01-14T04:51:20.524Z,3.03
2019-01-14T04:54:27.998Z,3.07
2019-01-14T04:57:44.439Z,3.06
2019-01-14T05:00:51.656Z,3.16
2019-01-14T05:04:08.336Z,3.11
2019-01-14T05:07:15.452Z,2.97
2019-01-14T05:10:22.750Z,2.84
2019-01-14T05:13:30.027Z,2.96
2019-01-14T05:16:47.095Z,2.93
2019-01-14T05:20:03.666Z,2.95
2019-01-14T05:23:20.153Z,2.85
2019-01-14T05:26:27.290Z,2.85
2019-01-14T05:29:34.492Z,2.87
2019-01-14T05:32:41.622Z,2.90
2019-01-14T05:35:48.885Z,2.95
2019-01-14T05:38:56.172Z,3.02
2019-01-14T05:42:03.471Z,3.02
2019-01-14T05:45:09.787Z,2.91
2019-01-14T05:48:17.000Z,2.96
2019-01-14T05:51:23.419Z,3.09
2019-01-14T05:54:30.614Z,3.02
2019-01-14T05:57:37.832Z,3.00
2019-01-14T06:00:54.587Z,3.04
2019-01-14T06:04:01.804Z,2.92
2019-01-14T06:07:07.974Z,2.93
2019-01-14T06:10:15.344Z,2.93
2019-01-14T06:13:22.634Z,2.77
2019-01-14T06:16:29.766Z,2.83
2019-01-14T06:19:38.481Z,2.73
2019-01-14T06:22:45.781Z,2.69
2019-01-14T06:25:53.078Z,2.81
2019-01-14T06:29:00.289Z,2.78
2019-01-14T06:32:05.972Z,2.72
2019-01-14T06:35:13.238Z,2.68
2019-01-14T06:38:20.359Z,2.70
2019-01-14T06:41:27.541Z,2.65
2019-01-14T06:44:33.956Z,2.65
2019-01-14T06:47:50.619Z,2.65
2019-01-14T06:50:57.813Z,2.56
2019-01-14T06:54:05.204Z,2.56
2019-01-14T06:57:21.679Z,2.63
2019-01-14T07:00:29.052Z,2.61
2019-01-14T07:03:51.629Z,2.51
2019-01-14T07:06:58.787Z,2.54
2019-01-14T07:10:07.602Z,2.63
2019-01-14T07:13:14.800Z,2.54
2019-01-14T07:16:31.663Z,2.67
2019-01-14T07:19:38.796Z,2.67
2019-01-14T07:22:46.151Z,2.62
2019-01-14T07:26:02.715Z,2.70
2019-01-14T07:29:10.021Z,2.68
2019-01-14T07:32:26.746Z,2.56
2019-01-14T07:35:33.523Z,2.52
2019-01-14T07:38:39.316Z,2.55
2019-01-14T07:41:46.531Z,2.42
2019-01-14T07:44:53.655Z,2.46
2019-01-14T07:47:59.727Z,2.45
2019-01-14T07:51:16.292Z,2.55
2019-01-14T07:54:32.950Z,2.42
2019-01-14T07:57:40.240Z,2.43
2019-01-14T08:00:47.452Z,2.42
2019-01-14T08:03:54.597Z,2.54
2019-01-14T08:07:02.232Z,2.39
2019-01-14T08:10:18.580Z,2.44
2019-01-14T08:13:25.871Z,2.42
2019-01-14T08:16:33.061Z,2.29
2019-01-14T08:19:49.661Z,2.43
2019-01-14T08:22:56.945Z,2.41
2019-01-14T08:26:16.123Z,2.45
2019-01-14T08:29:23.423Z,2.50
2019-01-14T08:32:30.513Z,2.45
2019-01-14T08:35:37.757Z,2.39
2019-01-14T08:38:44.870Z,2.17
2019-01-14T08:41:55.318Z,2.11
2019-01-14T08:45:03.282Z,2.01
2019-01-14T08:48:10.792Z,2.06
2019-01-14T08:51:18.042Z,2.16
2019-01-14T08:54:25.267Z,2.21
2019-01-14T08:57:32.632Z,2.27
2019-01-14T09:00:39.973Z,2.03
2019-01-14T09:03:47.167Z,1.85
2019-01-14T09:06:54.293Z,1.51
2019-01-14T09:10:01.547Z,1.16
2019-01-14T09:13:08.682Z,1.36
2019-01-14T09:16:16.245Z,1.22
2019-01-14T09:19:32.932Z,1.39
2019-01-14T09:22:40.073Z,1.26
2019-01-14T09:25:53.600Z,1.27
2019-01-14T09:29:05.766Z,1.48
2019-01-14T09:32:12.972Z,1.39
2019-01-14T09:35:20.445Z,1.44
2019-01-14T09:38:36.851Z,1.55
2019-01-14T09:41:43.977Z,1.66
2019-01-14T09:44:51.517Z,1.75
2019-01-14T09:48:08.000Z,1.88
2019-01-14T09:51:24.752Z,1.82
2019-01-14T09:54:31.863Z,1.53
2019-01-14T09:57:39.056Z,1.59
2019-01-14T10:00:46.350Z,1.61
2019-01-14T10:03:53.554Z,1.73
2019-01-14T10:07:00.782Z,1.86
2019-01-14T10:10:18.503Z,1.94
2019-01-14T10:13:25.716Z,1.85
2019-01-14T10:16:32.922Z,1.85
2019-01-14T10:19:40.069Z,1.86
2019-01-14T10:22:47.313Z,1.93
2019-01-14T10:25:54.630Z,1.94
2019-01-14T10:29:01.740Z,2.01
2019-01-14T10:32:09.036Z,2.02
2019-01-14T10:35:16.346Z,2.03
2019-01-14T10:38:24.102Z,1.98
2019-01-14T10:41:40.660Z,2.01
2019-01-14T10:44:57.395Z,2.00
2019-01-14T10:48:04.795Z,2.10
2019-01-14T10:51:21.291Z,2.26
2019-01-14T10:54:28.488Z,2.16
2019-01-14T10:57:35.948Z,2.20
2019-01-14T11:00:52.444Z,2.33
2019-01-14T11:03:59.732Z,2.45
2019-01-14T11:07:16.514Z,2.44
2019-01-14T11:10:23.731Z,2.56
2019-01-14T11:13:40.495Z,2.52
2019-01-14T11:16:57.194Z,2.40
2019-01-14T11:20:03.649Z,2.32
2019-01-14T11:23:10.780Z,2.24
2019-01-14T11:26:18.134Z,2.36
2019-01-14T11:29:25.367Z,2.49
2019-01-14T11:32:32.613Z,2.64
2019-01-14T11:35:40.043Z,2.67
2019-01-14T11:38:50.117Z,2.70
2019-01-14T11:41:57.691Z,2.77
2019-01-14T11:45:06.404Z,2.79
2019-01-14T11:48:13.648Z,2.68
2019-01-14T11:51:20.951Z,2.74
2019-01-14T11:54:28.146Z,2.79
2019-01-14T11:57:35.516Z,2.79
2019-01-14T12:00:42.830Z,2.72
2019-01-14T12:03:59.459Z,2.74
2019-01-14T12:07:16.196Z,2.54
2019-01-14T12:10:23.408Z,2.81
2019-01-14T12:13:30.541Z,3.90
2019-01-14T12:16:37.845Z,4.70
2019-01-14T12:19:45.130Z,4.55
2019-01-14T12:23:01.825Z,4.72
2019-01-14T12:26:18.548Z,5.01
2019-01-14T12:29:25.779Z,4.80
2019-01-14T12:32:33.039Z,5.27
2019-01-14T12:35:49.716Z,5.02
2019-01-14T12:38:56.838Z,4.48
2019-01-14T12:42:13.664Z,4.04
2019-01-14T12:45:19.933Z,3.64
2019-01-14T12:48:27.068Z,3.56
2019-01-14T12:51:34.357Z,3.49
2019-01-14T12:54:41.575Z,3.34
2019-01-14T12:57:48.792Z,3.22
2019-01-14T13:00:55.509Z,3.39
2019-01-14T13:04:11.950Z,3.33
2019-01-14T13:07:19.266Z,3.21
2019-01-14T13:10:25.409Z,3.09
2019-01-14T13:13:32.711Z,2.97
2019-01-14T13:16:40.015Z,2.95
2019-01-14T13:19:46.126Z,2.96
2019-01-14T13:22:53.647Z,2.86
2019-01-14T13:26:10.453Z,2.99
2019-01-14T13:29:27.204Z,3.01
2019-01-14T13:32:33.836Z,2.95
2019-01-14T13:35:41.057Z,2.99
2019-01-14T13:38:48.257Z,3.03
2019-01-14T13:41:53.941Z,2.91
2019-01-14T13:45:01.275Z,2.95
2019-01-14T13:48:08.592Z,2.97
2019-01-14T13:51:15.906Z,3.02
2019-01-14T13:54:23.041Z,2.97
2019-01-14T13:57:30.384Z,3.03
2019-01-14T14:00:37.623Z,3.13
2019-01-14T14:03:54.216Z,3.13
2019-01-14T14:07:01.477Z,3.18
2019-01-14T14:10:23.424Z,3.33
2019-01-14T14:13:39.695Z,3.24
2019-01-14T14:16:46.914Z,3.17
2019-01-14T14:19:54.106Z,3.22
2019-01-14T14:23:01.377Z,3.14
2019-01-14T14:26:08.579Z,2.97
2019-01-14T14:29:25.240Z,3.01
2019-01-14T14:32:32.534Z,2.87
2019-01-14T14:35:39.698Z,2.87
2019-01-14T14:38:47.041Z,2.78
2019-01-14T14:42:03.666Z,2.70
2019-01-14T14:45:11.957Z,2.33
2019-01-14T14:48:19.088Z,2.29
2019-01-14T14:51:26.365Z,2.31
2019-01-14T14:54:33.602Z,2.34
2019-01-14T14:57:40.840Z,2.28
2019-01-14T15:00:48.531Z,2.29
2019-01-14T15:03:55.730Z,2.21
2019-01-14T15:07:02.954Z,2.19
2019-01-14T15:10:21.221Z,2.29
2019-01-14T15:13:37.908Z,2.25
2019-01-14T15:16:45.147Z,2.20
2019-01-14T15:19:52.451Z,2.16
2019-01-14T15:23:09.137Z,2.19
2019-01-14T15:26:25.887Z,2.26
2019-01-14T15:29:33.097Z,2.10
2019-01-14T15:32:40.209Z,2.12
2019-01-14T15:35:47.335Z,2.06
2019-01-14T15:38:54.684Z,2.09
2019-01-14T15:42:02.053Z,2.13
2019-01-14T15:45:12.007Z,1.98
2019-01-14T15:48:19.425Z,2.01
2019-01-14T15:51:26.562Z,2.04
2019-01-14T15:54:33.956Z,2.01
2019-01-14T15:57:39.559Z,1.90
2019-01-14T16:00:46.761Z,2.01
2019-01-14T16:04:03.364Z,2.02
2019-01-14T16:07:10.489Z,1.99
2019-01-14T16:10:20.070Z,1.98
2019-01-14T16:13:27.406Z,1.99
2019-01-14T16:16:34.698Z,2.01
2019-01-14T16:19:41.932Z,2.00
2019-01-14T16:22:49.130Z,1.95
2019-01-14T16:25:56.338Z,2.06
2019-01-14T16:29:03.532Z,2.06
2019-01-14T16:32:10.841Z,2.11
2019-01-14T16:35:18.355Z,2.04
2019-01-14T16:38:25.602Z,2.08
2019-01-14T16:41:32.722Z,2.04
2019-01-14T16:44:39.956Z,2.03
2019-01-14T16:47:47.235Z,2.09
2019-01-14T16:50:54.619Z,2.10
2019-01-14T16:54:01.853Z,2.01
2019-01-14T16:57:09.036Z,1.99
2019-01-14T17:00:17.754Z,2.03
2019-01-14T17:03:24.992Z,2.08
2019-01-14T17:06:32.217Z,1.91
2019-01-14T17:09:39.755Z,2.02
2019-01-14T17:12:56.200Z,2.02
2019-01-14T17:16:15.365Z,2.01
2019-01-14T17:19:22.669Z,1.87
2019-01-14T17:22:29.874Z,1.92
2019-01-14T17:25:37.045Z,1.83
2019-01-14T17:28:44.299Z,1.92
2019-01-14T17:31:53.321Z,1.93
2019-01-14T17:35:09.885Z,2.03
2019-01-14T17:38:26.525Z,2.03
2019-01-14T17:41:33.829Z,1.92
2019-01-14T17:44:40.957Z,1.87
2019-01-14T17:47:48.147Z,1.93
2019-01-14T17:50:55.333Z,1.88
2019-01-14T17:54:02.461Z,1.90
2019-01-14T17:57:09.650Z,1.94
2019-01-14T18:00:26.785Z,1.96
2019-01-14T18:03:43.217Z,1.95
2019-01-14T18:06:50.518Z,1.92
2019-01-14T18:09:57.705Z,1.98
2019-01-14T18:13:05.113Z,1.82
2019-01-14T18:16:21.650Z,1.86
2019-01-14T18:19:27.242Z,1.75
2019-01-14T18:22:34.398Z,1.80
2019-01-14T18:25:43.320Z,1.68
2019-01-14T18:29:00.012Z,1.84
2019-01-14T18:32:16.753Z,1.86
2019-01-14T18:35:23.897Z,1.93
2019-01-14T18:38:31.034Z,1.94
2019-01-14T18:41:38.166Z,1.91
2019-01-14T18:44:45.378Z,1.98
2019-01-14T18:47:52.684Z,2.10
2019-01-14T18:50:59.896Z,2.08
2019-01-14T18:54:07.183Z,2.09
2019-01-14T18:57:23.828Z,2.20
2019-01-14T19:00:31.030Z,2.20
2019-01-14T19:03:38.289Z,2.21
2019-01-14T19:06:45.497Z,2.21
2019-01-14T19:09:52.627Z,2.23
2019-01-14T19:12:59.888Z,2.32
2019-01-14T19:16:07.025Z,2.35
2019-01-14T19:19:14.221Z,2.31
2019-01-14T19:22:21.494Z,2.34
2019-01-14T19:25:27.856Z,2.31
2019-01-14T19:28:35.068Z,2.33
2019-01-14T19:31:42.300Z,2.33
2019-01-14T19:34:49.493Z,2.21
2019-01-14T19:37:56.868Z,2.37
2019-01-14T19:41:04.006Z,2.39
2019-01-14T19:44:11.824Z,2.25
2019-01-14T19:47:17.334Z,2.30
2019-01-14T19:50:25.107Z,2.46
2019-01-14T19:53:41.460Z,2.45
2019-01-14T19:56:48.758Z,2.47
2019-01-14T20:00:07.515Z,2.55
2019-01-14T20:03:23.808Z,2.43
2019-01-14T20:06:31.109Z,2.49
2019-01-14T20:09:47.866Z,2.55
2019-01-14T20:12:56.006Z,2.55
2019-01-14T20:16:03.126Z,2.54
2019-01-14T20:19:10.361Z,2.56
2019-01-14T20:22:17.561Z,2.56
2019-01-14T20:25:24.829Z,2.52
2019-01-14T20:28:31.942Z,2.59
2019-01-14T20:31:39.222Z,2.52
2019-01-14T20:34:46.243Z,2.57
2019-01-14T20:37:53.360Z,2.54
2019-01-14T20:41:00.631Z,2.46
2019-01-14T20:44:07.915Z,2.53
2019-01-14T20:47:15.216Z,2.53
2019-01-14T20:50:22.595Z,2.48
2019-01-14T20:53:29.797Z,2.52
2019-01-14T20:56:37.079Z,2.39
2019-01-14T20:59:44.393Z,2.47
2019-01-14T21:02:51.728Z,2.62
2019-01-14T21:06:08.720Z,2.56
2019-01-14T21:09:25.097Z,2.57
2019-01-14T21:12:32.093Z,2.55
2019-01-14T21:15:39.291Z,2.53
2019-01-14T21:18:46.290Z,2.63
2019-01-14T21:21:53.374Z,2.72
2019-01-14T21:25:00.399Z,2.75
2019-01-14T21:28:07.482Z,2.73
2019-01-14T21:31:14.567Z,2.76
2019-01-14T21:34:21.685Z,2.77
2019-01-14T21:37:37.923Z,2.73
2019-01-14T21:40:44.938Z,2.74
2019-01-14T21:43:51.955Z,2.70
2019-01-14T21:46:59.093Z,2.75
2019-01-14T21:50:08.694Z,2.69
2019-01-14T21:53:25.068Z,2.69
2019-01-14T21:56:32.191Z,2.75
2019-01-14T21:59:38.625Z,2.71
2019-01-14T22:02:45.786Z,2.79
2019-01-14T22:05:52.800Z,2.77
2019-01-14T22:09:11.011Z,2.76
2019-01-14T22:12:18.043Z,2.72
2019-01-14T22:15:25.209Z,2.77
2019-01-14T22:18:31.290Z,2.80
2019-01-14T22:21:47.836Z,2.85
2019-01-14T22:24:54.858Z,2.75
2019-01-14T22:28:01.867Z,2.79
2019-01-14T22:31:08.946Z,2.84
2019-01-14T22:34:16.051Z,2.88
2019-01-14T22:37:23.180Z,2.81
2019-01-14T22:40:30.179Z,2.83
2019-01-14T22:43:37.306Z,2.88
2019-01-14T22:46:55.871Z,2.96
2019-01-14T22:50:03.089Z,3.06
2019-01-14T22:53:08.521Z,3.06
2019-01-14T22:56:15.631Z,3.09
2019-01-14T22:59:22.776Z,3.09
2019-01-14T23:02:29.968Z,3.12
2019-01-14T23:05:37.205Z,3.13
2019-01-14T23:08:44.865Z,3.10
2019-01-14T23:11:53.118Z,3.10
2019-01-14T23:15:00.609Z,3.16
2019-01-14T23:18:07.881Z,3.18
2019-01-14T23:21:15.106Z,3.23
2019-01-14T23:24:22.299Z,3.27
2019-01-14T23:27:29.434Z,3.29
2019-01-14T23:30:36.725Z,3.28
2019-01-14T23:33:43.863Z,3.39
2019-01-14T23:36:51.098Z,3.37
2019-01-14T23:39:58.278Z,3.52
2019-01-14T23:43:05.608Z,3.50
2019-01-14T23:46:12.853Z,3.46
2019-01-14T23:49:19.973Z,3.50
2019-01-14T23:52:27.273Z,3.56
2019-01-14T23:55:44.008Z,3.57
2019-01-14T23:58:51.125Z,3.57
